sensor_id;sensor_type;location;lat;lon;timestamp;temperature;humidity
70534;SHT31;58088;51.186;17.130;2022-11-15T00:02:15;5.64;79.56
70534;SHT31;58088;51.186;17.130;2022-11-15T00:04:59;5.59;79.36
70534;SHT31;58088;51.186;17.130;2022-11-15T00:07:44;5.51;79.22
70534;SHT31;58088;51.186;17.130;2022-11-15T00:10:29;5.45;79.22
70534;SHT31;58088;51.186;17.130;2022-11-15T00:13:14;5.41;79.20
70534;SHT31;58088;51.186;17.130;2022-11-15T00:16:00;5.39;79.11
70534;SHT31;58088;51.186;17.130;2022-11-15T00:18:46;5.34;79.02
70534;SHT31;58088;51.186;17.130;2022-11-15T00:21:31;5.30;78.92
70534;SHT31;58088;51.186;17.130;2022-11-15T00:24:15;5.25;78.97
70534;SHT31;58088;51.186;17.130;2022-11-15T00:27:00;5.21;79.10
70534;SHT31;58088;51.186;17.130;2022-11-15T00:29:45;5.20;79.10
70534;SHT31;58088;51.186;17.130;2022-11-15T00:32:31;5.16;79.09
70534;SHT31;58088;51.186;17.130;2022-11-15T00:35:17;5.12;79.11
70534;SHT31;58088;51.186;17.130;2022-11-15T00:38:02;5.08;79.18
70534;SHT31;58088;51.186;17.130;2022-11-15T00:40:47;5.06;79.32
70534;SHT31;58088;51.186;17.130;2022-11-15T00:43:32;5.03;79.40
70534;SHT31;58088;51.186;17.130;2022-11-15T00:46:18;5.03;79.53
70534;SHT31;58088;51.186;17.130;2022-11-15T00:49:03;5.03;79.52
70534;SHT31;58088;51.186;17.130;2022-11-15T00:51:48;4.98;79.54
70534;SHT31;58088;51.186;17.130;2022-11-15T00:54:33;4.95;79.59
70534;SHT31;58088;51.186;17.130;2022-11-15T00:57:18;4.92;79.61
70534;SHT31;58088;51.186;17.130;2022-11-15T01:00:03;4.88;79.60
70534;SHT31;58088;51.186;17.130;2022-11-15T01:02:49;4.86;79.64
70534;SHT31;58088;51.186;17.130;2022-11-15T01:05:33;4.84;79.70
70534;SHT31;58088;51.186;17.130;2022-11-15T01:08:20;4.79;79.74
70534;SHT31;58088;51.186;17.130;2022-11-15T01:11:07;4.74;79.67
70534;SHT31;58088;51.186;17.130;2022-11-15T01:13:54;4.69;79.75
70534;SHT31;58088;51.186;17.130;2022-11-15T01:16:39;4.69;79.80
70534;SHT31;58088;51.186;17.130;2022-11-15T01:19:24;4.65;79.96
70534;SHT31;58088;51.186;17.130;2022-11-15T01:22:09;4.64;80.14
70534;SHT31;58088;51.186;17.130;2022-11-15T01:24:54;4.66;80.05
70534;SHT31;58088;51.186;17.130;2022-11-15T01:27:38;4.66;79.86
70534;SHT31;58088;51.186;17.130;2022-11-15T01:30:23;4.59;79.73
70534;SHT31;58088;51.186;17.130;2022-11-15T01:33:08;4.53;79.73
70534;SHT31;58088;51.186;17.130;2022-11-15T01:35:53;4.54;79.75
70534;SHT31;58088;51.186;17.130;2022-11-15T01:38:39;4.55;79.75
70534;SHT31;58088;51.186;17.130;2022-11-15T01:41:24;4.56;79.67
70534;SHT31;58088;51.186;17.130;2022-11-15T01:47:31;4.58;79.37
70534;SHT31;58088;51.186;17.130;2022-11-15T01:50:24;4.63;79.26
70534;SHT31;58088;51.186;17.130;2022-11-15T01:53:16;4.61;78.98
70534;SHT31;58088;51.186;17.130;2022-11-15T01:56:06;4.64;78.91
70534;SHT31;58088;51.186;17.130;2022-11-15T01:58:58;4.67;78.88
70534;SHT31;58088;51.186;17.130;2022-11-15T02:01:50;4.66;78.64
70534;SHT31;58088;51.186;17.130;2022-11-15T02:04:37;4.62;78.60
70534;SHT31;58088;51.186;17.130;2022-11-15T02:07:35;4.63;78.58
70534;SHT31;58088;51.186;17.130;2022-11-15T02:10:21;4.59;78.38
70534;SHT31;58088;51.186;17.130;2022-11-15T02:13:08;4.55;78.44
70534;SHT31;58088;51.186;17.130;2022-11-15T02:19:27;4.52;78.75
70534;SHT31;58088;51.186;17.130;2022-11-15T02:25:58;4.49;78.81
70534;SHT31;58088;51.186;17.130;2022-11-15T02:32:44;4.41;78.70
70534;SHT31;58088;51.186;17.130;2022-11-15T02:35:38;4.35;78.72
70534;SHT31;58088;51.186;17.130;2022-11-15T02:38:46;4.37;78.64
70534;SHT31;58088;51.186;17.130;2022-11-15T02:41:40;4.43;78.60
70534;SHT31;58088;51.186;17.130;2022-11-15T02:44:36;4.44;78.51
70534;SHT31;58088;51.186;17.130;2022-11-15T02:47:28;4.41;78.43
70534;SHT31;58088;51.186;17.130;2022-11-15T02:50:20;4.37;78.56
70534;SHT31;58088;51.186;17.130;2022-11-15T02:53:11;4.35;78.60
70534;SHT31;58088;51.186;17.130;2022-11-15T02:55:58;4.32;78.60
70534;SHT31;58088;51.186;17.130;2022-11-15T02:58:54;4.26;78.60
70534;SHT31;58088;51.186;17.130;2022-11-15T03:12:03;4.11;78.68
70534;SHT31;58088;51.186;17.130;2022-11-15T03:15:00;4.06;78.61
70534;SHT31;58088;51.186;17.130;2022-11-15T03:20:54;3.92;78.61
70534;SHT31;58088;51.186;17.130;2022-11-15T03:23:44;3.90;78.75
70534;SHT31;58088;51.186;17.130;2022-11-15T03:26:33;3.86;78.75
70534;SHT31;58088;51.186;17.130;2022-11-15T03:29:24;3.84;78.70
70534;SHT31;58088;51.186;17.130;2022-11-15T03:32:17;3.78;78.70
70534;SHT31;58088;51.186;17.130;2022-11-15T03:35:14;3.75;78.69
70534;SHT31;58088;51.186;17.130;2022-11-15T03:38:11;3.72;78.60
70534;SHT31;58088;51.186;17.130;2022-11-15T03:41:05;3.66;78.64
70534;SHT31;58088;51.186;17.130;2022-11-15T03:44:05;3.63;78.80
70534;SHT31;58088;51.186;17.130;2022-11-15T03:47:03;3.62;78.80
70534;SHT31;58088;51.186;17.130;2022-11-15T03:49:52;3.61;78.80
70534;SHT31;58088;51.186;17.130;2022-11-15T03:52:45;3.61;78.65
70534;SHT31;58088;51.186;17.130;2022-11-15T03:55:32;3.57;78.52
70534;SHT31;58088;51.186;17.130;2022-11-15T03:58:18;3.57;78.50
70534;SHT31;58088;51.186;17.130;2022-11-15T04:01:03;3.52;78.46
70534;SHT31;58088;51.186;17.130;2022-11-15T04:03:48;3.49;78.59
70534;SHT31;58088;51.186;17.130;2022-11-15T04:06:33;3.52;78.67
70534;SHT31;58088;51.186;17.130;2022-11-15T04:09:18;3.51;78.76
70534;SHT31;58088;51.186;17.130;2022-11-15T04:12:03;3.44;78.82
70534;SHT31;58088;51.186;17.130;2022-11-15T04:14:48;3.41;78.99
70534;SHT31;58088;51.186;17.130;2022-11-15T04:17:52;3.38;79.00
70534;SHT31;58088;51.186;17.130;2022-11-15T04:20:38;3.37;78.96
70534;SHT31;58088;51.186;17.130;2022-11-15T04:23:42;3.34;78.90
70534;SHT31;58088;51.186;17.130;2022-11-15T04:26:45;3.35;78.88
70534;SHT31;58088;51.186;17.130;2022-11-15T04:29:30;3.33;78.75
70534;SHT31;58088;51.186;17.130;2022-11-15T04:32:18;3.31;78.70
70534;SHT31;58088;51.186;17.130;2022-11-15T04:35:02;3.31;78.70
70534;SHT31;58088;51.186;17.130;2022-11-15T04:37:47;3.28;78.68
70534;SHT31;58088;51.186;17.130;2022-11-15T04:40:32;3.24;78.63
70534;SHT31;58088;51.186;17.130;2022-11-15T04:43:18;3.22;78.73
70534;SHT31;58088;51.186;17.130;2022-11-15T04:46:03;3.18;78.80
70534;SHT31;58088;51.186;17.130;2022-11-15T04:48:48;3.09;78.80
70534;SHT31;58088;51.186;17.130;2022-11-15T04:51:34;3.06;78.95
70534;SHT31;58088;51.186;17.130;2022-11-15T04:54:18;3.07;79.00
70534;SHT31;58088;51.186;17.130;2022-11-15T04:57:03;3.07;79.07
70534;SHT31;58088;51.186;17.130;2022-11-15T04:59:48;3.03;79.07
70534;SHT31;58088;51.186;17.130;2022-11-15T05:02:33;3.01;79.21
70534;SHT31;58088;51.186;17.130;2022-11-15T05:05:37;2.98;79.36
70534;SHT31;58088;51.186;17.130;2022-11-15T05:08:22;2.95;79.44
70534;SHT31;58088;51.186;17.130;2022-11-15T05:11:07;2.95;79.68
70534;SHT31;58088;51.186;17.130;2022-11-15T05:13:51;2.95;79.82
70534;SHT31;58088;51.186;17.130;2022-11-15T05:16:37;2.94;79.96
70534;SHT31;58088;51.186;17.130;2022-11-15T05:19:22;2.94;79.99
70534;SHT31;58088;51.186;17.130;2022-11-15T05:22:07;2.93;79.96
70534;SHT31;58088;51.186;17.130;2022-11-15T05:24:52;2.94;79.99
70534;SHT31;58088;51.186;17.130;2022-11-15T05:27:37;2.95;79.90
70534;SHT31;58088;51.186;17.130;2022-11-15T05:30:22;2.93;79.90
70534;SHT31;58088;51.186;17.130;2022-11-15T05:33:07;2.95;80.02
70534;SHT31;58088;51.186;17.130;2022-11-15T05:35:54;2.99;80.16
70534;SHT31;58088;51.186;17.130;2022-11-15T05:38:48;2.99;80.01
70534;SHT31;58088;51.186;17.130;2022-11-15T05:41:38;2.99;79.98
70534;SHT31;58088;51.186;17.130;2022-11-15T05:44:36;3.01;79.95
70534;SHT31;58088;51.186;17.130;2022-11-15T05:47:26;3.02;79.81
70534;SHT31;58088;51.186;17.130;2022-11-15T05:50:13;2.99;79.70
70534;SHT31;58088;51.186;17.130;2022-11-15T05:53:02;2.91;79.70
70534;SHT31;58088;51.186;17.130;2022-11-15T05:55:47;2.87;79.80
70534;SHT31;58088;51.186;17.130;2022-11-15T05:58:33;2.85;79.80
70534;SHT31;58088;51.186;17.130;2022-11-15T06:01:17;2.81;79.70
70534;SHT31;58088;51.186;17.130;2022-11-15T06:04:02;2.72;79.68
70534;SHT31;58088;51.186;17.130;2022-11-15T06:06:47;2.68;79.72
70534;SHT31;58088;51.186;17.130;2022-11-15T06:09:32;2.66;79.93
70534;SHT31;58088;51.186;17.130;2022-11-15T06:12:16;2.66;80.04
70534;SHT31;58088;51.186;17.130;2022-11-15T06:15:01;2.64;80.15
70534;SHT31;58088;51.186;17.130;2022-11-15T06:17:46;2.65;80.20
70534;SHT31;58088;51.186;17.130;2022-11-15T06:20:31;2.65;80.21
70534;SHT31;58088;51.186;17.130;2022-11-15T06:23:16;2.66;80.20
70534;SHT31;58088;51.186;17.130;2022-11-15T06:26:02;2.65;80.21
70534;SHT31;58088;51.186;17.130;2022-11-15T06:28:48;2.64;80.30
70534;SHT31;58088;51.186;17.130;2022-11-15T06:31:33;2.61;80.49
70534;SHT31;58088;51.186;17.130;2022-11-15T06:34:19;2.63;80.61
70534;SHT31;58088;51.186;17.130;2022-11-15T06:37:04;2.67;80.54
70534;SHT31;58088;51.186;17.130;2022-11-15T06:39:48;2.70;80.50
70534;SHT31;58088;51.186;17.130;2022-11-15T06:42:33;2.75;80.48
70534;SHT31;58088;51.186;17.130;2022-11-15T06:45:18;2.78;80.48
70534;SHT31;58088;51.186;17.130;2022-11-15T06:48:03;2.81;80.41
70534;SHT31;58088;51.186;17.130;2022-11-15T06:50:55;2.84;80.40
70534;SHT31;58088;51.186;17.130;2022-11-15T06:53:43;2.88;80.40
70534;SHT31;58088;51.186;17.130;2022-11-15T06:56:27;2.90;80.44
70534;SHT31;58088;51.186;17.130;2022-11-15T06:59:12;2.98;80.54
70534;SHT31;58088;51.186;17.130;2022-11-15T07:01:57;3.07;80.50
70534;SHT31;58088;51.186;17.130;2022-11-15T07:04:42;3.18;80.50
70534;SHT31;58088;51.186;17.130;2022-11-15T07:07:26;3.29;80.53
70534;SHT31;58088;51.186;17.130;2022-11-15T07:10:11;3.40;80.46
70534;SHT31;58088;51.186;17.130;2022-11-15T07:12:56;3.54;80.50
70534;SHT31;58088;51.186;17.130;2022-11-15T07:15:41;3.68;80.54
70534;SHT31;58088;51.186;17.130;2022-11-15T07:18:27;3.83;80.52
70534;SHT31;58088;51.186;17.130;2022-11-15T07:21:11;3.96;80.55
70534;SHT31;58088;51.186;17.130;2022-11-15T07:24:00;4.08;80.50
70534;SHT31;58088;51.186;17.130;2022-11-15T07:26:44;4.18;80.46
70534;SHT31;58088;51.186;17.130;2022-11-15T07:29:29;4.29;80.42
70534;SHT31;58088;51.186;17.130;2022-11-15T07:32:14;4.41;80.49
70534;SHT31;58088;51.186;17.130;2022-11-15T07:34:59;4.52;80.44
70534;SHT31;58088;51.186;17.130;2022-11-15T07:37:44;4.63;80.49
70534;SHT31;58088;51.186;17.130;2022-11-15T07:40:47;4.73;80.40
70534;SHT31;58088;51.186;17.130;2022-11-15T07:43:40;4.78;80.30
70534;SHT31;58088;51.186;17.130;2022-11-15T07:46:24;4.90;80.28
70534;SHT31;58088;51.186;17.130;2022-11-15T07:49:10;5.04;80.30
70534;SHT31;58088;51.186;17.130;2022-11-15T07:51:54;5.18;80.30
70534;SHT31;58088;51.186;17.130;2022-11-15T07:54:42;5.31;80.26
70534;SHT31;58088;51.186;17.130;2022-11-15T07:57:27;5.41;80.21
70534;SHT31;58088;51.186;17.130;2022-11-15T08:00:12;5.54;80.20
70534;SHT31;58088;51.186;17.130;2022-11-15T08:03:02;5.66;80.20
70534;SHT31;58088;51.186;17.130;2022-11-15T08:05:50;5.79;80.18
70534;SHT31;58088;51.186;17.130;2022-11-15T08:08:38;5.90;80.08
70534;SHT31;58088;51.186;17.130;2022-11-15T08:11:23;5.99;79.92
70534;SHT31;58088;51.186;17.130;2022-11-15T08:14:08;6.08;79.81
70534;SHT31;58088;51.186;17.130;2022-11-15T08:16:54;6.15;79.80
70534;SHT31;58088;51.186;17.130;2022-11-15T08:19:39;6.27;79.79
70534;SHT31;58088;51.186;17.130;2022-11-15T08:22:28;6.39;79.77
70534;SHT31;58088;51.186;17.130;2022-11-15T08:25:13;6.54;79.67
70534;SHT31;58088;51.186;17.130;2022-11-15T08:27:59;6.62;79.55
70534;SHT31;58088;51.186;17.130;2022-11-15T08:30:47;6.70;79.50
70534;SHT31;58088;51.186;17.130;2022-11-15T08:33:32;6.82;79.50
70534;SHT31;58088;51.186;17.130;2022-11-15T08:36:19;6.95;79.42
70534;SHT31;58088;51.186;17.130;2022-11-15T08:39:05;7.04;79.18
70534;SHT31;58088;51.186;17.130;2022-11-15T08:41:49;7.12;79.11
70534;SHT31;58088;51.186;17.130;2022-11-15T08:44:35;7.24;79.00
70534;SHT31;58088;51.186;17.130;2022-11-15T08:47:20;7.36;79.00
70534;SHT31;58088;51.186;17.130;2022-11-15T08:50:05;7.47;78.90
70534;SHT31;58088;51.186;17.130;2022-11-15T08:52:51;7.53;78.74
70534;SHT31;58088;51.186;17.130;2022-11-15T08:55:36;7.63;78.73
70534;SHT31;58088;51.186;17.130;2022-11-15T08:58:22;7.76;78.78
70534;SHT31;58088;51.186;17.130;2022-11-15T09:01:13;7.89;78.63
70534;SHT31;58088;51.186;17.130;2022-11-15T09:04:02;8.02;78.43
70534;SHT31;58088;51.186;17.130;2022-11-15T09:06:48;8.16;78.29
70534;SHT31;58088;51.186;17.130;2022-11-15T09:09:33;8.24;78.09
70534;SHT31;58088;51.186;17.130;2022-11-15T09:12:18;8.35;77.98
70534;SHT31;58088;51.186;17.130;2022-11-15T09:15:03;8.45;77.85
70534;SHT31;58088;51.186;17.130;2022-11-15T09:17:50;8.59;77.90
70534;SHT31;58088;51.186;17.130;2022-11-15T09:20:35;8.71;77.69
70534;SHT31;58088;51.186;17.130;2022-11-15T09:23:20;8.83;77.52
70534;SHT31;58088;51.186;17.130;2022-11-15T09:26:05;8.97;77.45
70534;SHT31;58088;51.186;17.130;2022-11-15T09:28:52;9.09;77.46
70534;SHT31;58088;51.186;17.130;2022-11-15T09:31:38;9.20;77.32
70534;SHT31;58088;51.186;17.130;2022-11-15T09:34:24;9.30;77.17
70534;SHT31;58088;51.186;17.130;2022-11-15T09:37:09;9.38;77.10
70534;SHT31;58088;51.186;17.130;2022-11-15T09:39:54;9.50;76.93
70534;SHT31;58088;51.186;17.130;2022-11-15T09:49:35;9.99;76.29
70534;SHT31;58088;51.186;17.130;2022-11-15T09:52:15;10.08;76.13
70534;SHT31;58088;51.186;17.130;2022-11-15T09:54:45;10.20;76.14
70534;SHT31;58088;51.186;17.130;2022-11-15T09:57:17;10.33;76.26
70534;SHT31;58088;51.186;17.130;2022-11-15T10:05:43;10.72;76.10
70534;SHT31;58088;51.186;17.130;2022-11-15T10:11:07;10.97;75.81
70534;SHT31;58088;51.186;17.130;2022-11-15T10:13:41;11.06;75.63
70534;SHT31;58088;51.186;17.130;2022-11-15T10:21:48;11.27;75.00
70534;SHT31;58088;51.186;17.130;2022-11-15T10:24:49;11.36;74.82
70534;SHT31;58088;51.186;17.130;2022-11-15T10:27:26;11.43;74.75
70534;SHT31;58088;51.186;17.130;2022-11-15T10:29:52;11.51;74.70
70534;SHT31;58088;51.186;17.130;2022-11-15T10:32:19;11.64;74.65
70534;SHT31;58088;51.186;17.130;2022-11-15T10:34:47;11.77;74.64
70534;SHT31;58088;51.186;17.130;2022-11-15T10:37:15;11.88;74.52
70534;SHT31;58088;51.186;17.130;2022-11-15T10:40:05;11.96;74.28
70534;SHT31;58088;51.186;17.130;2022-11-15T10:42:42;12.01;73.97
70534;SHT31;58088;51.186;17.130;2022-11-15T10:45:29;12.06;73.90
70534;SHT31;58088;51.186;17.130;2022-11-15T10:50:41;12.24;73.59
70534;SHT31;58088;51.186;17.130;2022-11-15T10:56:07;12.38;73.29
70534;SHT31;58088;51.186;17.130;2022-11-15T10:58:42;12.45;73.27
70534;SHT31;58088;51.186;17.130;2022-11-15T11:01:19;12.51;72.94
70534;SHT31;58088;51.186;17.130;2022-11-15T11:04:06;12.56;72.36
70534;SHT31;58088;51.186;17.130;2022-11-15T11:06:54;12.62;72.27
70534;SHT31;58088;51.186;17.130;2022-11-15T11:12:02;12.76;72.04
70534;SHT31;58088;51.186;17.130;2022-11-15T11:14:34;12.83;71.93
70534;SHT31;58088;51.186;17.130;2022-11-15T11:17:15;12.89;71.58
70534;SHT31;58088;51.186;17.130;2022-11-15T11:20:00;12.95;71.42
70534;SHT31;58088;51.186;17.130;2022-11-15T11:28:26;13.27;70.73
70534;SHT31;58088;51.186;17.130;2022-11-15T11:31:29;13.33;70.34
70534;SHT31;58088;51.186;17.130;2022-11-15T11:34:32;13.45;70.14
70534;SHT31;58088;51.186;17.130;2022-11-15T11:37:46;13.51;69.62
70534;SHT31;58088;51.186;17.130;2022-11-15T11:52:13;13.70;68.76
70534;SHT31;58088;51.186;17.130;2022-11-15T12:00:30;13.76;68.53
70534;SHT31;58088;51.186;17.130;2022-11-15T12:05:49;13.74;68.26
70534;SHT31;58088;51.186;17.130;2022-11-15T12:08:31;13.76;68.12
70534;SHT31;58088;51.186;17.130;2022-11-15T12:11:14;13.77;68.07
70534;SHT31;58088;51.186;17.130;2022-11-15T12:14:05;13.76;67.80
70534;SHT31;58088;51.186;17.130;2022-11-15T12:17:04;13.78;67.78
70534;SHT31;58088;51.186;17.130;2022-11-15T12:19:33;13.82;68.08
70534;SHT31;58088;51.186;17.130;2022-11-15T12:22:10;13.85;68.07
70534;SHT31;58088;51.186;17.130;2022-11-15T12:28:15;13.89;68.05
70534;SHT31;58088;51.186;17.130;2022-11-15T12:33:43;13.85;67.74
70534;SHT31;58088;51.186;17.130;2022-11-15T12:36:30;13.84;67.72
70534;SHT31;58088;51.186;17.130;2022-11-15T12:39:08;13.86;67.72
70534;SHT31;58088;51.186;17.130;2022-11-15T12:41:43;13.84;67.63
70534;SHT31;58088;51.186;17.130;2022-11-15T13:02:37;13.92;66.86
70534;SHT31;58088;51.186;17.130;2022-11-15T13:12:54;13.99;66.31
70534;SHT31;58088;51.186;17.130;2022-11-15T13:15:31;14.03;66.42
70534;SHT31;58088;51.186;17.130;2022-11-15T13:18:34;14.04;66.18
70534;SHT31;58088;51.186;17.130;2022-11-15T13:21:05;14.01;66.07
70534;SHT31;58088;51.186;17.130;2022-11-15T13:24:12;14.02;66.32
70534;SHT31;58088;51.186;17.130;2022-11-15T13:26:42;14.01;66.48
70534;SHT31;58088;51.186;17.130;2022-11-15T13:29:15;14.00;66.57
70534;SHT31;58088;51.186;17.130;2022-11-15T13:31:44;14.01;66.68
70534;SHT31;58088;51.186;17.130;2022-11-15T13:34:33;13.97;66.63
70534;SHT31;58088;51.186;17.130;2022-11-15T13:37:01;14.00;66.71
70534;SHT31;58088;51.186;17.130;2022-11-15T13:39:33;14.02;66.73
70534;SHT31;58088;51.186;17.130;2022-11-15T13:42:02;14.02;66.69
70534;SHT31;58088;51.186;17.130;2022-11-15T13:44:30;14.03;66.64
70534;SHT31;58088;51.186;17.130;2022-11-15T13:49:40;14.06;66.58
70534;SHT31;58088;51.186;17.130;2022-11-15T13:52:07;14.07;66.66
70534;SHT31;58088;51.186;17.130;2022-11-15T13:54:43;14.07;66.55
70534;SHT31;58088;51.186;17.130;2022-11-15T13:57:24;14.06;66.61
70534;SHT31;58088;51.186;17.130;2022-11-15T14:00:26;14.02;66.53
70534;SHT31;58088;51.186;17.130;2022-11-15T14:06:07;13.96;66.66
70534;SHT31;58088;51.186;17.130;2022-11-15T14:08:39;13.94;66.48
70534;SHT31;58088;51.186;17.130;2022-11-15T14:11:08;13.93;66.44
70534;SHT31;58088;51.186;17.130;2022-11-15T14:13:41;13.90;66.37
70534;SHT31;58088;51.186;17.130;2022-11-15T14:16:35;13.88;66.32
70534;SHT31;58088;51.186;17.130;2022-11-15T14:19:05;13.88;66.42
70534;SHT31;58088;51.186;17.130;2022-11-15T14:21:36;13.88;66.48
70534;SHT31;58088;51.186;17.130;2022-11-15T14:24:19;13.85;66.47
70534;SHT31;58088;51.186;17.130;2022-11-15T14:26:47;13.83;66.50
70534;SHT31;58088;51.186;17.130;2022-11-15T14:29:27;13.79;66.58
70534;SHT31;58088;51.186;17.130;2022-11-15T14:34:58;13.65;66.74
70534;SHT31;58088;51.186;17.130;2022-11-15T14:37:28;13.58;66.92
70534;SHT31;58088;51.186;17.130;2022-11-15T14:40:01;13.51;67.08
70534;SHT31;58088;51.186;17.130;2022-11-15T14:42:30;13.43;67.13
70534;SHT31;58088;51.186;17.130;2022-11-15T14:44:56;13.32;67.36
70534;SHT31;58088;51.186;17.130;2022-11-15T14:47:23;13.22;67.57
70534;SHT31;58088;51.186;17.130;2022-11-15T14:49:49;13.14;67.72
70534;SHT31;58088;51.186;17.130;2022-11-15T14:52:26;13.04;67.88
70534;SHT31;58088;51.186;17.130;2022-11-15T14:54:56;12.93;68.11
70534;SHT31;58088;51.186;17.130;2022-11-15T14:57:23;12.85;68.35
70534;SHT31;58088;51.186;17.130;2022-11-15T14:59:50;12.76;68.53
70534;SHT31;58088;51.186;17.130;2022-11-15T15:02:18;12.70;68.64
70534;SHT31;58088;51.186;17.130;2022-11-15T15:04:48;12.62;68.73
70534;SHT31;58088;51.186;17.130;2022-11-15T15:07:15;12.52;68.76
70534;SHT31;58088;51.186;17.130;2022-11-15T15:09:43;12.42;68.79
70534;SHT31;58088;51.186;17.130;2022-11-15T15:12:20;12.34;68.79
70534;SHT31;58088;51.186;17.130;2022-11-15T15:14:49;12.20;68.80
70534;SHT31;58088;51.186;17.130;2022-11-15T15:17:16;12.09;68.96
70534;SHT31;58088;51.186;17.130;2022-11-15T15:19:43;12.00;69.00
70534;SHT31;58088;51.186;17.130;2022-11-15T15:22:16;11.92;69.17
70534;SHT31;58088;51.186;17.130;2022-11-15T15:24:45;11.84;69.64
70534;SHT31;58088;51.186;17.130;2022-11-15T15:27:12;11.73;69.92
70534;SHT31;58088;51.186;17.130;2022-11-15T15:29:38;11.65;70.08
70534;SHT31;58088;51.186;17.130;2022-11-15T15:32:05;11.55;70.05
70534;SHT31;58088;51.186;17.130;2022-11-15T15:34:32;11.44;69.93
70534;SHT31;58088;51.186;17.130;2022-11-15T15:37:33;11.33;69.97
70534;SHT31;58088;51.186;17.130;2022-11-15T15:39:53;11.26;70.00
70534;SHT31;58088;51.186;17.130;2022-11-15T15:42:21;11.18;70.04
70534;SHT31;58088;51.186;17.130;2022-11-15T15:44:49;11.06;70.16
70534;SHT31;58088;51.186;17.130;2022-11-15T15:47:17;10.91;70.31
70534;SHT31;58088;51.186;17.130;2022-11-15T15:49:48;10.84;70.58
70534;SHT31;58088;51.186;17.130;2022-11-15T15:52:16;10.78;70.91
70534;SHT31;58088;51.186;17.130;2022-11-15T15:54:42;10.71;71.18
70534;SHT31;58088;51.186;17.130;2022-11-15T15:57:10;10.65;71.24
70534;SHT31;58088;51.186;17.130;2022-11-15T15:59:39;10.60;71.30
70534;SHT31;58088;51.186;17.130;2022-11-15T16:02:08;10.52;71.36
70534;SHT31;58088;51.186;17.130;2022-11-15T16:04:38;10.46;71.48
70534;SHT31;58088;51.186;17.130;2022-11-15T16:07:05;10.37;71.56
70534;SHT31;58088;51.186;17.130;2022-11-15T16:09:36;10.29;71.68
70534;SHT31;58088;51.186;17.130;2022-11-15T16:12:20;10.19;71.73
70534;SHT31;58088;51.186;17.130;2022-11-15T16:14:46;10.08;71.81
70534;SHT31;58088;51.186;17.130;2022-11-15T16:17:17;10.00;71.95
70534;SHT31;58088;51.186;17.130;2022-11-15T16:19:46;9.92;72.14
70534;SHT31;58088;51.186;17.130;2022-11-15T16:22:13;9.88;72.37
70534;SHT31;58088;51.186;17.130;2022-11-15T16:24:39;9.83;72.46
70534;SHT31;58088;51.186;17.130;2022-11-15T16:27:05;9.72;72.35
70534;SHT31;58088;51.186;17.130;2022-11-15T16:29:38;9.60;72.40
70534;SHT31;58088;51.186;17.130;2022-11-15T16:32:04;9.46;72.53
70534;SHT31;58088;51.186;17.130;2022-11-15T16:34:30;9.33;72.79
70534;SHT31;58088;51.186;17.130;2022-11-15T16:36:56;9.24;73.18
70534;SHT31;58088;51.186;17.130;2022-11-15T16:39:22;9.19;73.55
70534;SHT31;58088;51.186;17.130;2022-11-15T16:41:48;9.14;73.88
70534;SHT31;58088;51.186;17.130;2022-11-15T16:44:15;9.13;74.11
70534;SHT31;58088;51.186;17.130;2022-11-15T16:46:42;9.12;74.46
70534;SHT31;58088;51.186;17.130;2022-11-15T16:49:14;9.13;74.66
70534;SHT31;58088;51.186;17.130;2022-11-15T16:51:40;9.12;74.70
70534;SHT31;58088;51.186;17.130;2022-11-15T16:54:09;9.09;74.62
70534;SHT31;58088;51.186;17.130;2022-11-15T16:56:35;9.13;75.24
70534;SHT31;58088;51.186;17.130;2022-11-15T16:59:01;9.26;75.52
70534;SHT31;58088;51.186;17.130;2022-11-15T17:01:29;9.23;75.18
70534;SHT31;58088;51.186;17.130;2022-11-15T17:04:00;9.21;74.97
70534;SHT31;58088;51.186;17.130;2022-11-15T17:06:41;9.18;74.85
70534;SHT31;58088;51.186;17.130;2022-11-15T17:09:10;9.14;74.70
70534;SHT31;58088;51.186;17.130;2022-11-15T17:11:45;9.09;74.52
70534;SHT31;58088;51.186;17.130;2022-11-15T17:14:12;9.05;74.50
70534;SHT31;58088;51.186;17.130;2022-11-15T17:16:38;9.02;74.45
70534;SHT31;58088;51.186;17.130;2022-11-15T17:19:14;9.02;74.55
70534;SHT31;58088;51.186;17.130;2022-11-15T17:21:46;8.97;74.30
70534;SHT31;58088;51.186;17.130;2022-11-15T17:24:16;8.89;74.37
70534;SHT31;58088;51.186;17.130;2022-11-15T17:26:45;8.86;74.50
70534;SHT31;58088;51.186;17.130;2022-11-15T17:29:11;8.81;74.27
70534;SHT31;58088;51.186;17.130;2022-11-15T17:31:37;8.73;74.20
70534;SHT31;58088;51.186;17.130;2022-11-15T17:34:04;8.69;74.16
70534;SHT31;58088;51.186;17.130;2022-11-15T17:36:32;8.68;74.10
70534;SHT31;58088;51.186;17.130;2022-11-15T17:38:59;8.65;74.18
70534;SHT31;58088;51.186;17.130;2022-11-15T17:41:25;8.61;74.24
70534;SHT31;58088;51.186;17.130;2022-11-15T17:43:55;8.56;74.18
70534;SHT31;58088;51.186;17.130;2022-11-15T17:46:23;8.46;74.30
70534;SHT31;58088;51.186;17.130;2022-11-15T17:48:51;8.36;74.32
70534;SHT31;58088;51.186;17.130;2022-11-15T17:51:17;8.27;74.52
70534;SHT31;58088;51.186;17.130;2022-11-15T17:53:45;8.19;74.81
70534;SHT31;58088;51.186;17.130;2022-11-15T17:56:15;8.14;75.14
70534;SHT31;58088;51.186;17.130;2022-11-15T17:58:47;8.11;75.28
70534;SHT31;58088;51.186;17.130;2022-11-15T18:01:17;8.05;75.51
70534;SHT31;58088;51.186;17.130;2022-11-15T18:03:48;8.00;75.76
70534;SHT31;58088;51.186;17.130;2022-11-15T18:06:15;7.98;75.81
70534;SHT31;58088;51.186;17.130;2022-11-15T18:08:44;7.94;75.87
70534;SHT31;58088;51.186;17.130;2022-11-15T18:11:13;7.92;75.82
70534;SHT31;58088;51.186;17.130;2022-11-15T18:13:44;7.88;75.81
70534;SHT31;58088;51.186;17.130;2022-11-15T18:16:15;7.86;75.77
70534;SHT31;58088;51.186;17.130;2022-11-15T18:18:44;7.84;75.80
70534;SHT31;58088;51.186;17.130;2022-11-15T18:21:12;7.83;75.80
70534;SHT31;58088;51.186;17.130;2022-11-15T18:23:44;7.78;75.91
70534;SHT31;58088;51.186;17.130;2022-11-15T18:26:12;7.76;75.94
70534;SHT31;58088;51.186;17.130;2022-11-15T18:28:42;7.75;75.88
70534;SHT31;58088;51.186;17.130;2022-11-15T18:31:14;7.73;75.99
70534;SHT31;58088;51.186;17.130;2022-11-15T18:33:43;7.67;75.97
70534;SHT31;58088;51.186;17.130;2022-11-15T18:36:11;7.60;75.86
70534;SHT31;58088;51.186;17.130;2022-11-15T18:38:43;7.55;75.72
70534;SHT31;58088;51.186;17.130;2022-11-15T18:41:16;7.52;75.64
70534;SHT31;58088;51.186;17.130;2022-11-15T18:43:49;7.46;75.69
70534;SHT31;58088;51.186;17.130;2022-11-15T18:46:18;7.39;75.74
70534;SHT31;58088;51.186;17.130;2022-11-15T18:48:46;7.38;75.80
70534;SHT31;58088;51.186;17.130;2022-11-15T18:51:18;7.36;75.81
70534;SHT31;58088;51.186;17.130;2022-11-15T18:53:58;7.33;75.82
70534;SHT31;58088;51.186;17.130;2022-11-15T18:56:27;7.25;75.71